sensor_id;sensor_type;location;lat;lon;timestamp;pressure;altitude;pressure_sealevel;temperature;humidity
59043;BME280;44826;51.596;5.624;2023-07-13T00:00:22;101312.88;;;16.48;62.11
59043;BME280;44826;51.596;5.624;2023-07-13T00:02:47;101315.53;;;16.48;62.30
59043;BME280;44826;51.596;5.624;2023-07-13T00:05:13;101318.28;;;16.45;62.31
59043;BME280;44826;51.596;5.624;2023-07-13T00:07:38;101315.78;;;16.42;62.39
59043;BME280;44826;51.596;5.624;2023-07-13T00:10:04;101317.59;;;16.40;62.52
59043;BME280;44826;51.596;5.624;2023-07-13T00:12:33;101314.34;;;16.35;62.78
59043;BME280;44826;51.596;5.624;2023-07-13T00:15:00;101313.56;;;16.33;63.02
59043;BME280;44826;51.596;5.624;2023-07-13T00:17:27;101311.84;;;16.32;62.83
59043;BME280;44826;51.596;5.624;2023-07-13T00:19:53;101318.84;;;16.31;63.06
59043;BME280;44826;51.596;5.624;2023-07-13T00:22:19;101307.63;;;16.28;63.29
59043;BME280;44826;51.596;5.624;2023-07-13T00:24:44;101313.75;;;16.28;63.15
59043;BME280;44826;51.596;5.624;2023-07-13T00:27:10;101318.13;;;16.28;63.27
59043;BME280;44826;51.596;5.624;2023-07-13T00:29:36;101318.25;;;16.24;63.76
59043;BME280;44826;51.596;5.624;2023-07-13T00:32:03;101322.78;;;16.21;63.70
59043;BME280;44826;51.596;5.624;2023-07-13T00:34:29;101321.09;;;16.20;64.02
59043;BME280;44826;51.596;5.624;2023-07-13T00:36:55;101313.34;;;16.17;64.22
59043;BME280;44826;51.596;5.624;2023-07-13T00:39:20;101323.97;;;16.14;64.37
59043;BME280;44826;51.596;5.624;2023-07-13T00:41:46;101312.69;;;16.12;64.48
59043;BME280;44826;51.596;5.624;2023-07-13T00:44:15;101316.28;;;16.09;64.50
59043;BME280;44826;51.596;5.624;2023-07-13T00:46:41;101314.72;;;16.05;64.81
59043;BME280;44826;51.596;5.624;2023-07-13T00:49:09;101320.09;;;16.02;64.96
59043;BME280;44826;51.596;5.624;2023-07-13T00:51:48;101327.16;;;16.00;64.50
59043;BME280;44826;51.596;5.624;2023-07-13T00:54:18;101332.53;;;15.97;64.96
59043;BME280;44826;51.596;5.624;2023-07-13T00:56:45;101332.66;;;15.93;65.34
59043;BME280;44826;51.596;5.624;2023-07-13T00:59:13;101333.75;;;15.88;65.53
59043;BME280;44826;51.596;5.624;2023-07-13T01:01:39;101335.53;;;15.87;65.57
59043;BME280;44826;51.596;5.624;2023-07-13T01:04:05;101329.59;;;15.82;65.99
59043;BME280;44826;51.596;5.624;2023-07-13T01:06:34;101332.25;;;15.81;66.06
59043;BME280;44826;51.596;5.624;2023-07-13T01:09:00;101323.63;;;15.78;66.16
59043;BME280;44826;51.596;5.624;2023-07-13T01:11:26;101324.53;;;15.77;66.49
59043;BME280;44826;51.596;5.624;2023-07-13T01:13:51;101320.25;;;15.75;66.76
59043;BME280;44826;51.596;5.624;2023-07-13T01:16:33;101324.69;;;15.73;65.78
59043;BME280;44826;51.596;5.624;2023-07-13T01:18:59;101323.91;;;15.71;66.93
59043;BME280;44826;51.596;5.624;2023-07-13T01:21:27;101324.84;;;15.70;67.01
59043;BME280;44826;51.596;5.624;2023-07-13T01:23:54;101333.72;;;15.66;67.14
59043;BME280;44826;51.596;5.624;2023-07-13T01:26:19;101332.03;;;15.65;67.40
59043;BME280;44826;51.596;5.624;2023-07-13T01:28:45;101326.09;;;15.59;67.38
59043;BME280;44826;51.596;5.624;2023-07-13T01:31:11;101330.53;;;15.57;67.75
59043;BME280;44826;51.596;5.624;2023-07-13T01:33:39;101328.97;;;15.53;68.11
59043;BME280;44826;51.596;5.624;2023-07-13T01:36:06;101337.75;;;15.52;68.06
59043;BME280;44826;51.596;5.624;2023-07-13T01:38:33;101335.13;;;15.52;68.26
59043;BME280;44826;51.596;5.624;2023-07-13T01:40:59;101333.34;;;15.53;68.27
59043;BME280;44826;51.596;5.624;2023-07-13T01:43:24;101329.00;;;15.52;68.44
59043;BME280;44826;51.596;5.624;2023-07-13T01:45:50;101328.09;;;15.53;68.69
59043;BME280;44826;51.596;5.624;2023-07-13T01:48:15;101333.41;;;15.51;68.56
59043;BME280;44826;51.596;5.624;2023-07-13T01:50:40;101345.66;;;15.51;68.98
59043;BME280;44826;51.596;5.624;2023-07-13T01:53:06;101341.28;;;15.51;68.79
59043;BME280;44826;51.596;5.624;2023-07-13T01:55:31;101337.78;;;15.51;68.85
59043;BME280;44826;51.596;5.624;2023-07-13T01:57:57;101333.47;;;15.50;69.19
59043;BME280;44826;51.596;5.624;2023-07-13T02:00:23;101336.16;;;15.48;69.43
59043;BME280;44826;51.596;5.624;2023-07-13T02:02:48;101340.53;;;15.47;69.16
59043;BME280;44826;51.596;5.624;2023-07-13T02:05:14;101340.59;;;15.46;69.59
59043;BME280;44826;51.596;5.624;2023-07-13T02:07:40;101339.75;;;15.45;69.63
59043;BME280;44826;51.596;5.624;2023-07-13T02:10:07;101332.84;;;15.43;69.50
59043;BME280;44826;51.596;5.624;2023-07-13T02:12:33;101346.81;;;15.43;69.71
59043;BME280;44826;51.596;5.624;2023-07-13T02:14:59;101349.56;;;15.40;69.87
59043;BME280;44826;51.596;5.624;2023-07-13T02:17:26;101346.97;;;15.39;69.95
59043;BME280;44826;51.596;5.624;2023-07-13T02:19:51;101346.13;;;15.38;70.04
59043;BME280;44826;51.596;5.624;2023-07-13T02:22:17;101341.88;;;15.36;70.16
59043;BME280;44826;51.596;5.624;2023-07-13T02:24:42;101338.56;;;15.30;70.28
59043;BME280;44826;51.596;5.624;2023-07-13T02:27:07;101339.47;;;15.29;70.51
59043;BME280;44826;51.596;5.624;2023-07-13T02:29:33;101340.38;;;15.28;70.68
59043;BME280;44826;51.596;5.624;2023-07-13T02:31:58;101337.75;;;15.28;70.99
59043;BME280;44826;51.596;5.624;2023-07-13T02:34:23;101337.03;;;15.25;71.34
59043;BME280;44826;51.596;5.624;2023-07-13T02:36:49;101343.19;;;15.24;71.39
59043;BME280;44826;51.596;5.624;2023-07-13T02:39:14;101338.88;;;15.21;71.53
59043;BME280;44826;51.596;5.624;2023-07-13T02:41:40;101340.75;;;15.19;71.59
59043;BME280;44826;51.596;5.624;2023-07-13T02:44:06;101345.13;;;15.18;71.92
59043;BME280;44826;51.596;5.624;2023-07-13T02:46:34;101339.97;;;15.15;71.99
59043;BME280;44826;51.596;5.624;2023-07-13T02:48:59;101348.72;;;15.16;72.33
59043;BME280;44826;51.596;5.624;2023-07-13T02:51:25;101346.19;;;15.13;72.43
59043;BME280;44826;51.596;5.624;2023-07-13T02:53:51;101356.69;;;15.13;72.38
59043;BME280;44826;51.596;5.624;2023-07-13T02:56:16;101349.78;;;15.10;72.48
59043;BME280;44826;51.596;5.624;2023-07-13T02:58:42;101355.94;;;15.09;72.57
59043;BME280;44826;51.596;5.624;2023-07-13T03:01:08;101358.59;;;15.08;72.78
59043;BME280;44826;51.596;5.624;2023-07-13T03:03:34;101361.28;;;15.06;72.83
59043;BME280;44826;51.596;5.624;2023-07-13T03:06:02;101358.72;;;15.05;72.94
59043;BME280;44826;51.596;5.624;2023-07-13T03:08:28;101360.56;;;15.02;73.06
59043;BME280;44826;51.596;5.624;2023-07-13T03:11:01;101360.59;;;15.01;72.95
59043;BME280;44826;51.596;5.624;2023-07-13T03:13:27;101366.75;;;15.00;73.24
59043;BME280;44826;51.596;5.624;2023-07-13T03:15:52;101364.13;;;15.00;73.33
59043;BME280;44826;51.596;5.624;2023-07-13T03:18:17;101362.41;;;14.99;73.61
59043;BME280;44826;51.596;5.624;2023-07-13T03:20:43;101358.16;;;14.96;73.80
59043;BME280;44826;51.596;5.624;2023-07-13T03:23:09;101356.44;;;14.95;73.94
59043;BME280;44826;51.596;5.624;2023-07-13T03:25:34;101355.63;;;14.93;74.12
59043;BME280;44826;51.596;5.624;2023-07-13T03:27:59;101359.16;;;14.92;74.33
59043;BME280;44826;51.596;5.624;2023-07-13T03:30:25;101364.47;;;14.91;74.41
59043;BME280;44826;51.596;5.624;2023-07-13T03:32:50;101365.41;;;14.88;74.55
59043;BME280;44826;51.596;5.624;2023-07-13T03:35:16;101366.31;;;14.87;74.79
59043;BME280;44826;51.596;5.624;2023-07-13T03:37:41;101369.91;;;14.84;75.04
59043;BME280;44826;51.596;5.624;2023-07-13T03:40:08;101374.34;;;14.82;75.06
59043;BME280;44826;51.596;5.624;2023-07-13T03:42:34;101376.94;;;14.84;75.42
59043;BME280;44826;51.596;5.624;2023-07-13T03:44:59;101377.88;;;14.81;75.51
59043;BME280;44826;51.596;5.624;2023-07-13T03:47:25;101378.84;;;14.79;75.75
59043;BME280;44826;51.596;5.624;2023-07-13T03:49:50;101373.59;;;14.79;75.90
59043;BME280;44826;51.596;5.624;2023-07-13T03:52:15;101384.09;;;14.79;76.00
59043;BME280;44826;51.596;5.624;2023-07-13T03:54:41;101384.09;;;14.79;76.54
59043;BME280;44826;51.596;5.624;2023-07-13T03:57:06;101390.22;;;14.78;76.26
59043;BME280;44826;51.596;5.624;2023-07-13T03:59:31;101389.44;;;14.76;76.32
59043;BME280;44826;51.596;5.624;2023-07-13T04:01:57;101393.84;;;14.74;77.10
59043;BME280;44826;51.596;5.624;2023-07-13T04:04:22;101393.84;;;14.74;76.64
59043;BME280;44826;51.596;5.624;2023-07-13T04:06:47;101394.75;;;14.72;76.96
59043;BME280;44826;51.596;5.624;2023-07-13T04:09:13;101390.41;;;14.73;77.12
59043;BME280;44826;51.596;5.624;2023-07-13T04:11:38;101397.38;;;14.72;77.23
59043;BME280;44826;51.596;5.624;2023-07-13T04:14:04;101402.59;;;14.74;77.14
59043;BME280;44826;51.596;5.624;2023-07-13T04:16:29;101404.28;;;14.75;77.22
59043;BME280;44826;51.596;5.624;2023-07-13T04:18:55;101402.53;;;14.76;77.20
59043;BME280;44826;51.596;5.624;2023-07-13T04:21:28;101403.31;;;14.78;77.34
59043;BME280;44826;51.596;5.624;2023-07-13T04:23:54;101405.84;;;14.81;77.44
59043;BME280;44826;51.596;5.624;2023-07-13T04:26:20;101400.59;;;14.81;77.63
59043;BME280;44826;51.596;5.624;2023-07-13T04:28:46;101401.41;;;14.83;77.69
59043;BME280;44826;51.596;5.624;2023-07-13T04:31:12;101409.13;;;14.86;78.05
59043;BME280;44826;51.596;5.624;2023-07-13T04:33:37;101404.72;;;14.88;78.21
59043;BME280;44826;51.596;5.624;2023-07-13T04:36:03;101405.47;;;14.92;78.17
59043;BME280;44826;51.596;5.624;2023-07-13T04:38:31;101418.41;;;14.96;78.36
59043;BME280;44826;51.596;5.624;2023-07-13T04:41:02;101412.25;;;14.97;78.44
59043;BME280;44826;51.596;5.624;2023-07-13T04:43:28;101414.78;;;15.00;78.28
59043;BME280;44826;51.596;5.624;2023-07-13T04:45:54;101417.34;;;15.02;78.51
59043;BME280;44826;51.596;5.624;2023-07-13T04:48:20;101417.22;;;15.05;78.82
59043;BME280;44826;51.596;5.624;2023-07-13T04:50:46;101421.50;;;15.08;79.06
59043;BME280;44826;51.596;5.624;2023-07-13T04:53:12;101422.31;;;15.10;79.15
59043;BME280;44826;51.596;5.624;2023-07-13T04:55:38;101419.56;;;15.13;79.65
59043;BME280;44826;51.596;5.624;2023-07-13T04:58:03;101420.31;;;15.16;79.36
59043;BME280;44826;51.596;5.624;2023-07-13T05:00:30;101433.25;;;15.21;79.63
59043;BME280;44826;51.596;5.624;2023-07-13T05:02:57;101429.63;;;15.25;79.22
59043;BME280;44826;51.596;5.624;2023-07-13T05:05:23;101428.59;;;15.29;79.73
59043;BME280;44826;51.596;5.624;2023-07-13T05:07:49;101436.34;;;15.32;80.17
59043;BME280;44826;51.596;5.624;2023-07-13T05:10:15;101436.25;;;15.36;80.04
59043;BME280;44826;51.596;5.624;2023-07-13T05:12:40;101439.53;;;15.41;79.95
59043;BME280;44826;51.596;5.624;2023-07-13T05:15:06;101436.88;;;15.42;80.57
59043;BME280;44826;51.596;5.624;2023-07-13T05:17:32;101439.31;;;15.47;80.28
59043;BME280;44826;51.596;5.624;2023-07-13T05:19:57;101434.81;;;15.51;80.69
59043;BME280;44826;51.596;5.624;2023-07-13T05:22:23;101445.19;;;15.54;80.47
59043;BME280;44826;51.596;5.624;2023-07-13T05:24:48;101451.19;;;15.57;80.48
59043;BME280;44826;51.596;5.624;2023-07-13T05:27:13;101459.75;;;15.62;80.54
59043;BME280;44826;51.596;5.624;2023-07-13T05:29:39;101448.22;;;15.67;80.63
59043;BME280;44826;51.596;5.624;2023-07-13T05:32:04;101451.66;;;15.69;80.09
59043;BME280;44826;51.596;5.624;2023-07-13T05:34:30;101451.50;;;15.72;80.27
59043;BME280;44826;51.596;5.624;2023-07-13T05:36:55;101448.78;;;15.75;80.33
59043;BME280;44826;51.596;5.624;2023-07-13T05:39:21;101459.06;;;15.81;80.08
59043;BME280;44826;51.596;5.624;2023-07-13T05:41:46;101464.19;;;15.84;79.49
59043;BME280;44826;51.596;5.624;2023-07-13T05:44:11;101465.94;;;15.85;80.02
59043;BME280;44826;51.596;5.624;2023-07-13T05:46:37;101460.56;;;15.88;79.92
59043;BME280;44826;51.596;5.624;2023-07-13T05:49:02;101460.44;;;15.91;80.03
59043;BME280;44826;51.596;5.624;2023-07-13T05:51:28;101459.41;;;15.96;79.77
59043;BME280;44826;51.596;5.624;2023-07-13T05:53:54;101469.72;;;16.00;79.40
59043;BME280;44826;51.596;5.624;2023-07-13T05:56:19;101472.22;;;16.03;79.52
59043;BME280;44826;51.596;5.624;2023-07-13T05:58:44;101468.75;;;16.03;79.92
59043;BME280;44826;51.596;5.624;2023-07-13T06:01:12;101468.63;;;16.06;79.80
59043;BME280;44826;51.596;5.624;2023-07-13T06:03:38;101466.63;;;16.13;79.90
59043;BME280;44826;51.596;5.624;2023-07-13T06:06:04;101474.22;;;16.20;79.60
59043;BME280;44826;51.596;5.624;2023-07-13T06:08:31;101484.56;;;16.23;78.83
59043;BME280;44826;51.596;5.624;2023-07-13T06:11:05;101486.28;;;16.24;79.05
59043;BME280;44826;51.596;5.624;2023-07-13T06:13:30;101487.19;;;16.23;79.20
59043;BME280;44826;51.596;5.624;2023-07-13T06:15:56;101487.19;;;16.23;79.62
59043;BME280;44826;51.596;5.624;2023-07-13T06:18:21;101495.03;;;16.25;79.54
59043;BME280;44826;51.596;5.624;2023-07-13T06:20:47;101492.34;;;16.27;79.61
59043;BME280;44826;51.596;5.624;2023-07-13T06:23:12;101496.63;;;16.29;79.57
59043;BME280;44826;51.596;5.624;2023-07-13T06:25:37;101493.94;;;16.31;79.53
59043;BME280;44826;51.596;5.624;2023-07-13T06:28:03;101504.19;;;16.37;79.87
59043;BME280;44826;51.596;5.624;2023-07-13T06:30:28;101495.16;;;16.44;79.55
59043;BME280;44826;51.596;5.624;2023-07-13T06:32:53;101502.66;;;16.53;78.95
59043;BME280;44826;51.596;5.624;2023-07-13T06:35:19;101492.97;;;16.56;78.52
59043;BME280;44826;51.596;5.624;2023-07-13T06:37:44;101493.69;;;16.59;78.70
59043;BME280;44826;51.596;5.624;2023-07-13T06:40:10;101497.09;;;16.61;78.51
59043;BME280;44826;51.596;5.624;2023-07-13T06:42:35;101498.66;;;16.65;78.48
59043;BME280;44826;51.596;5.624;2023-07-13T06:45:01;101505.50;;;16.69;78.26
59043;BME280;44826;51.596;5.624;2023-07-13T06:47:26;101508.88;;;16.73;78.06
59043;BME280;44826;51.596;5.624;2023-07-13T06:49:52;101514.00;;;16.76;77.82
59043;BME280;44826;51.596;5.624;2023-07-13T06:52:17;101510.44;;;16.77;77.51
59043;BME280;44826;51.596;5.624;2023-07-13T06:54:42;101513.84;;;16.81;77.19
59043;BME280;44826;51.596;5.624;2023-07-13T06:57:08;101513.56;;;16.87;77.59
59043;BME280;44826;51.596;5.624;2023-07-13T06:59:34;101513.34;;;16.92;77.84
59043;BME280;44826;51.596;5.624;2023-07-13T07:02:03;101517.69;;;16.93;77.20
59043;BME280;44826;51.596;5.624;2023-07-13T07:04:29;101519.41;;;16.94;77.40
59043;BME280;44826;51.596;5.624;2023-07-13T07:06:54;101509.81;;;16.93;77.39
59043;BME280;44826;51.596;5.624;2023-07-13T07:09:19;101515.78;;;16.98;76.67
59043;BME280;44826;51.596;5.624;2023-07-13T07:11:45;101515.66;;;17.01;77.01
59043;BME280;44826;51.596;5.624;2023-07-13T07:14:10;101522.50;;;17.05;77.29
59043;BME280;44826;51.596;5.624;2023-07-13T07:16:35;101520.66;;;17.07;76.45
59043;BME280;44826;51.596;5.624;2023-07-13T07:19:01;101519.88;;;17.05;77.22
59043;BME280;44826;51.596;5.624;2023-07-13T07:21:26;101524.13;;;17.08;76.43
59043;BME280;44826;51.596;5.624;2023-07-13T07:23:52;101529.19;;;17.12;76.79
59043;BME280;44826;51.596;5.624;2023-07-13T07:26:18;101526.44;;;17.16;76.72
59043;BME280;44826;51.596;5.624;2023-07-13T07:28:44;101527.34;;;17.14;77.17
59043;BME280;44826;51.596;5.624;2023-07-13T07:31:09;101532.41;;;17.19;76.44
59043;BME280;44826;51.596;5.624;2023-07-13T07:33:35;101525.25;;;17.23;76.28
59043;BME280;44826;51.596;5.624;2023-07-13T07:36:01;101528.69;;;17.25;76.52
59043;BME280;44826;51.596;5.624;2023-07-13T07:38:27;101524.06;;;17.30;76.46
59043;BME280;44826;51.596;5.624;2023-07-13T07:40:53;101533.53;;;17.34;76.15
59043;BME280;44826;51.596;5.624;2023-07-13T07:43:18;101532.50;;;17.38;75.49
59043;BME280;44826;51.596;5.624;2023-07-13T07:45:45;101528.00;;;17.40;75.78
59043;BME280;44826;51.596;5.624;2023-07-13T07:48:10;101532.28;;;17.43;76.40
59043;BME280;44826;51.596;5.624;2023-07-13T07:50:39;101540.88;;;17.47;75.90
59043;BME280;44826;51.596;5.624;2023-07-13T07:53:06;101543.25;;;17.53;75.23
59043;BME280;44826;51.596;5.624;2023-07-13T07:55:35;101544.69;;;17.60;74.41
59043;BME280;44826;51.596;5.624;2023-07-13T07:58:01;101536.72;;;17.62;75.15
59043;BME280;44826;51.596;5.624;2023-07-13T08:00:26;101540.88;;;17.67;74.52
59043;BME280;44826;51.596;5.624;2023-07-13T08:02:55;101540.53;;;17.75;74.28
59043;BME280;44826;51.596;5.624;2023-07-13T08:05:20;101535.97;;;17.79;74.73
59043;BME280;44826;51.596;5.624;2023-07-13T08:07:46;101540.97;;;17.85;73.55
59043;BME280;44826;51.596;5.624;2023-07-13T08:10:11;101537.19;;;17.90;73.61
59043;BME280;44826;51.596;5.624;2023-07-13T08:12:40;101541.31;;;17.96;73.29
59043;BME280;44826;51.596;5.624;2023-07-13T08:15:09;101540.94;;;18.05;72.38
59043;BME280;44826;51.596;5.624;2023-07-13T08:17:35;101543.09;;;18.16;71.59
59043;BME280;44826;51.596;5.624;2023-07-13T08:20:01;101530.47;;;18.23;71.35
59043;BME280;44826;51.596;5.624;2023-07-13T08:22:27;101532.97;;;18.26;70.38
59043;BME280;44826;51.596;5.624;2023-07-13T08:24:52;101536.34;;;18.28;72.13
59043;BME280;44826;51.596;5.624;2023-07-13T08:27:24;101546.75;;;18.31;71.42
59043;BME280;44826;51.596;5.624;2023-07-13T08:29:51;101536.16;;;18.33;69.93
59043;BME280;44826;51.596;5.624;2023-07-13T08:32:17;101536.22;;;18.31;69.02
59043;BME280;44826;51.596;5.624;2023-07-13T08:34:43;101538.84;;;18.31;68.51
59043;BME280;44826;51.596;5.624;2023-07-13T08:37:09;101535.94;;;18.38;69.80
59043;BME280;44826;51.596;5.624;2023-07-13T08:39:34;101539.03;;;18.46;69.06
59043;BME280;44826;51.596;5.624;2023-07-13T08:42:15;101537.75;;;18.55;69.34
59043;BME280;44826;51.596;5.624;2023-07-13T08:47:32;101538.47;;;18.58;66.22
59043;BME280;44826;51.596;5.624;2023-07-13T08:50:01;101540.88;;;18.63;67.41
59043;BME280;44826;51.596;5.624;2023-07-13T08:52:37;101543.94;;;18.73;66.76
59043;BME280;44826;51.596;5.624;2023-07-13T08:55:13;101546.25;;;18.79;66.15
59043;BME280;44826;51.596;5.624;2023-07-13T08:57:45;101536.09;;;18.89;64.96
59043;BME280;44826;51.596;5.624;2023-07-13T09:00:12;101547.25;;;18.95;65.25
59043;BME280;44826;51.596;5.624;2023-07-13T09:02:58;101540.09;;;18.98;65.71
59043;BME280;44826;51.596;5.624;2023-07-13T09:05:32;101541.78;;;18.99;64.89
59043;BME280;44826;51.596;5.624;2023-07-13T09:08:26;101539.63;;;19.07;65.97
59043;BME280;44826;51.596;5.624;2023-07-13T09:13:40;101547.47;;;19.26;64.10
59043;BME280;44826;51.596;5.624;2023-07-13T09:16:09;101543.81;;;19.29;61.76
59043;BME280;44826;51.596;5.624;2023-07-13T09:18:38;101541.78;;;19.34;61.91
59043;BME280;44826;51.596;5.624;2023-07-13T09:23:35;101537.56;;;19.47;61.07
59043;BME280;44826;51.596;5.624;2023-07-13T09:26:09;101535.56;;;19.52;61.43
59043;BME280;44826;51.596;5.624;2023-07-13T09:28:42;101538.81;;;19.58;61.81
59043;BME280;44826;51.596;5.624;2023-07-13T09:33:38;101535.75;;;19.65;61.64
59043;BME280;44826;51.596;5.624;2023-07-13T09:38:47;101533.41;;;19.77;59.19
59043;BME280;44826;51.596;5.624;2023-07-13T09:48:50;101535.56;;;19.86;59.86
59043;BME280;44826;51.596;5.624;2023-07-13T09:51:43;101536.38;;;19.88;59.11
59043;BME280;44826;51.596;5.624;2023-07-13T09:54:24;101531.91;;;19.89;59.97
59043;BME280;44826;51.596;5.624;2023-07-13T09:57:01;101539.94;;;19.87;59.80
59043;BME280;44826;51.596;5.624;2023-07-13T09:59:30;101531.81;;;19.90;58.98
59043;BME280;44826;51.596;5.624;2023-07-13T10:01:59;101540.34;;;19.95;60.48
59043;BME280;44826;51.596;5.624;2023-07-13T10:04:33;101547.97;;;20.01;59.31
59043;BME280;44826;51.596;5.624;2023-07-13T10:07:11;101539.94;;;20.03;59.33
59043;BME280;44826;51.596;5.624;2023-07-13T10:09:38;101541.81;;;20.01;58.23
59043;BME280;44826;51.596;5.624;2023-07-13T10:12:04;101556.81;;;20.00;58.28
59043;BME280;44826;51.596;5.624;2023-07-13T10:14:38;101548.72;;;20.04;57.65
59043;BME280;44826;51.596;5.624;2023-07-13T10:17:05;101551.22;;;20.07;56.58
59043;BME280;44826;51.596;5.624;2023-07-13T10:19:35;101551.00;;;20.10;56.66
59043;BME280;44826;51.596;5.624;2023-07-13T10:22:05;101544.53;;;20.15;56.54
59043;BME280;44826;51.596;5.624;2023-07-13T10:24:41;101542.19;;;20.27;57.05
59043;BME280;44826;51.596;5.624;2023-07-13T10:27:14;101544.38;;;20.35;57.32
59043;BME280;44826;51.596;5.624;2023-07-13T10:29:47;101546.75;;;20.39;57.35
59043;BME280;44826;51.596;5.624;2023-07-13T10:32:34;101545.66;;;20.43;56.14
59043;BME280;44826;51.596;5.624;2023-07-13T10:34:59;101543.78;;;20.45;55.41
59043;BME280;44826;51.596;5.624;2023-07-13T10:37:29;101537.56;;;20.46;56.19
59043;BME280;44826;51.596;5.624;2023-07-13T10:39:57;101542.41;;;20.54;56.39
59043;BME280;44826;51.596;5.624;2023-07-13T10:42:39;101540.09;;;20.64;56.49
59043;BME280;44826;51.596;5.624;2023-07-13T10:45:18;101528.97;;;20.73;55.78
59043;BME280;44826;51.596;5.624;2023-07-13T10:47:45;101549.66;;;20.83;53.99
59043;BME280;44826;51.596;5.624;2023-07-13T10:50:18;101541.28;;;20.90;53.96
59043;BME280;44826;51.596;5.624;2023-07-13T10:55:54;101553.50;;;21.07;55.25
59043;BME280;44826;51.596;5.624;2023-07-13T10:58:29;101569.53;;;21.04;55.45
59043;BME280;44826;51.596;5.624;2023-07-13T11:01:08;101577.09;;;20.96;56.42
59043;BME280;44826;51.596;5.624;2023-07-13T11:03:36;101579.69;;;20.82;56.42
59043;BME280;44826;51.596;5.624;2023-07-13T11:06:12;101596.56;;;20.63;58.02
59043;BME280;44826;51.596;5.624;2023-07-13T11:11:35;101598.28;;;20.32;60.49
59043;BME280;44826;51.596;5.624;2023-07-13T11:14:04;101604.03;;;20.23;61.93
59043;BME280;44826;51.596;5.624;2023-07-13T11:16:48;101596.13;;;20.23;60.18
59043;BME280;44826;51.596;5.624;2023-07-13T11:22:01;101593.91;;;20.31;59.81
59043;BME280;44826;51.596;5.624;2023-07-13T11:24:51;101594.84;;;20.46;59.82
59043;BME280;44826;51.596;5.624;2023-07-13T11:33:04;101570.47;;;21.03;59.84
59043;BME280;44826;51.596;5.624;2023-07-13T11:35:32;101576.94;;;21.14;56.35
59043;BME280;44826;51.596;5.624;2023-07-13T11:37:59;101566.94;;;21.19;57.37
59043;BME280;44826;51.596;5.624;2023-07-13T11:40:27;101579.03;;;21.23;57.07
59043;BME280;44826;51.596;5.624;2023-07-13T11:42:59;101582.44;;;21.25;55.65
59043;BME280;44826;51.596;5.624;2023-07-13T11:45:25;101589.44;;;21.26;55.96
59043;BME280;44826;51.596;5.624;2023-07-13T11:47:57;101589.28;;;21.29;55.96
59043;BME280;44826;51.596;5.624;2023-07-13T11:50:25;101585.56;;;21.32;55.92
59043;BME280;44826;51.596;5.624;2023-07-13T11:52:52;101577.47;;;21.35;56.61
59043;BME280;44826;51.596;5.624;2023-07-13T11:55:21;101580.78;;;21.38;55.69
59043;BME280;44826;51.596;5.624;2023-07-13T11:57:57;101583.41;;;21.38;56.98
59043;BME280;44826;51.596;5.624;2023-07-13T12:00:28;101591.34;;;21.38;55.40
59043;BME280;44826;51.596;5.624;2023-07-13T12:02:56;101583.88;;;21.31;54.64
59043;BME280;44826;51.596;5.624;2023-07-13T12:05:25;101596.78;;;21.21;56.05
59043;BME280;44826;51.596;5.624;2023-07-13T12:07:51;101590.53;;;21.07;58.55
59043;BME280;44826;51.596;5.624;2023-07-13T12:10:29;101585.97;;;20.95;57.64
59043;BME280;44826;51.596;5.624;2023-07-13T12:13:00;101591.75;;;20.86;59.57
59043;BME280;44826;51.596;5.624;2023-07-13T12:15:39;101590.44;;;20.79;59.90
59043;BME280;44826;51.596;5.624;2023-07-13T12:18:14;101584.84;;;20.67;61.26
59043;BME280;44826;51.596;5.624;2023-07-13T12:20:40;101583.50;;;20.60;62.33
59043;BME280;44826;51.596;5.624;2023-07-13T12:23:20;101584.72;;;20.54;63.21
59043;BME280;44826;51.596;5.624;2023-07-13T12:25:47;101583.28;;;20.49;63.39
59043;BME280;44826;51.596;5.624;2023-07-13T12:28:30;101579.59;;;20.51;62.96
59043;BME280;44826;51.596;5.624;2023-07-13T12:31:06;101576.69;;;20.56;61.43
59043;BME280;44826;51.596;5.624;2023-07-13T12:33:32;101580.88;;;20.60;62.06
59043;BME280;44826;51.596;5.624;2023-07-13T12:36:01;101571.81;;;20.64;61.97
59043;BME280;44826;51.596;5.624;2023-07-13T12:38:28;101578.44;;;20.71;60.20
59043;BME280;44826;51.596;5.624;2023-07-13T12:40:55;101578.81;;;20.81;61.65
59043;BME280;44826;51.596;5.624;2023-07-13T12:43:21;101576.50;;;20.91;59.58
59043;BME280;44826;51.596;5.624;2023-07-13T12:48:21;101577.22;;;21.09;57.03
59043;BME280;44826;51.596;5.624;2023-07-13T12:50:48;101574.03;;;21.18;54.50
59043;BME280;44826;51.596;5.624;2023-07-13T12:53:19;101562.81;;;21.29;52.86
59043;BME280;44826;51.596;5.624;2023-07-13T12:55:53;101569.06;;;21.43;55.09
59043;BME280;44826;51.596;5.624;2023-07-13T12:58:26;101570.69;;;21.60;54.90
59043;BME280;44826;51.596;5.624;2023-07-13T13:00:54;101570.81;;;21.73;50.56
59043;BME280;44826;51.596;5.624;2023-07-13T13:03:32;101582.09;;;21.76;51.33
59043;BME280;44826;51.596;5.624;2023-07-13T13:08:29;101576.03;;;21.89;50.37
59043;BME280;44826;51.596;5.624;2023-07-13T13:10:55;101575.84;;;21.92;49.26
59043;BME280;44826;51.596;5.624;2023-07-13T13:13:20;101566.53;;;21.99;50.57
59043;BME280;44826;51.596;5.624;2023-07-13T13:15:51;101570.53;;;22.06;50.20
59043;BME280;44826;51.596;5.624;2023-07-13T13:18:18;101577.13;;;22.13;51.96
59043;BME280;44826;51.596;5.624;2023-07-13T13:20:50;101573.25;;;22.05;49.23
59043;BME280;44826;51.596;5.624;2023-07-13T13:23:18;101578.00;;;22.00;48.91
59043;BME280;44826;51.596;5.624;2023-07-13T13:25:50;101584.44;;;21.95;49.30
59043;BME280;44826;51.596;5.624;2023-07-13T13:28:18;101588.41;;;21.88;48.92
59043;BME280;44826;51.596;5.624;2023-07-13T13:30:48;101597.13;;;21.76;49.08
59043;BME280;44826;51.596;5.624;2023-07-13T13:51:26;101615.78;;;21.58;49.52